Time,TemperatureF,DewpointF,PressureIn,WindDirection,WindDirectionDegrees,WindSpeedMPH,WindSpeedGustMPH,Humidity,HourlyPrecipIn,Conditions,Clouds,dailyrainin,SoftwareType,DateUTC
2013-03-05 00:00:00,40.6,31.3,29.88,East,90,0.0,0.0,69,0.00,,,0.00,WUHU21623XXSP,2013-03-05 08:00:00,
2013-03-05 00:05:00,40.6,31.3,29.88,East,90,0.0,0.0,69,0.00,,,0.00,WUHU21623XXSP,2013-03-05 08:05:00,
2013-03-05 00:10:00,40.4,31.1,29.88,ENE,67,0.0,0.0,69,0.00,,,0.00,WUHU21623XXSP,2013-03-05 08:10:00,
2013-03-05 00:15:00,40.4,31.5,29.88,NNE,22,0.0,0.0,70,0.00,,,0.00,WUHU21623XXSP,2013-03-05 08:15:00,
2013-03-05 00:20:00,40.1,31.2,29.87,NNE,22,0.0,1.8,70,0.00,,,0.00,WUHU21623XXSP,2013-03-05 08:20:00,
2013-03-05 00:25:00,40.3,31.4,29.88,NNW,337,0.9,3.6,70,0.00,,,0.00,WUHU21623XXSP,2013-03-05 08:25:00,
2013-03-05 00:30:00,40.4,31.5,29.87,NNW,337,0.0,3.6,70,0.00,,,0.00,WUHU21623XXSP,2013-03-05 08:30:00,
2013-03-05 00:35:00,40.1,31.2,29.87,NNW,337,0.0,2.0,70,0.00,,,0.00,WUHU21623XXSP,2013-03-05 08:35:00,
2013-03-05 00:40:00,40.1,31.5,29.87,NNW,337,0.0,0.0,71,0.00,,,0.00,WUHU21623XXSP,2013-03-05 08:40:00,
2013-03-05 00:45:00,39.9,31.3,29.87,NNW,337,0.0,0.0,71,0.00,,,0.00,WUHU21623XXSP,2013-03-05 08:45:00,
2013-03-05 00:50:00,39.9,31.3,29.86,NNW,337,0.0,0.0,71,0.00,,,0.00,WUHU21623XXSP,2013-03-05 08:50:00,
2013-03-05 00:55:00,39.7,31.1,29.86,NNW,337,0.0,0.0,71,0.00,,,0.00,WUHU21623XXSP,2013-03-05 08:55:00,
2013-03-05 01:00:00,39.5,31.3,29.87,NNW,337,0.0,0.0,72,0.00,,,0.00,WUHU21623XXSP,2013-03-05 09:00:00,
2013-03-05 01:05:00,39.5,31.3,29.86,NNW,337,0.0,0.0,72,0.00,,,0.00,WUHU21623XXSP,2013-03-05 09:05:00,
2013-03-05 01:10:00,39.4,31.2,29.86,NNW,337,0.0,0.0,72,0.00,,,0.00,WUHU21623XXSP,2013-03-05 09:10:00,
2013-03-05 01:15:00,39.2,31.0,29.87,NNW,337,0.0,0.0,72,0.00,,,0.00,WUHU21623XXSP,2013-03-05 09:15:00,
2013-03-05 01:20:00,39.0,30.5,29.86,NNW,337,0.0,0.0,71,0.00,,,0.00,WUHU21623XXSP,2013-03-05 09:20:00,
2013-03-05 01:25:00,38.8,30.3,29.86,NNW,337,0.0,0.0,71,0.00,,,0.00,WUHU21623XXSP,2013-03-05 09:25:00,
2013-03-05 01:30:00,38.8,30.3,29.86,NNW,337,0.0,0.0,71,0.00,,,0.00,WUHU21623XXSP,2013-03-05 09:30:00,
2013-03-05 01:35:00,38.6,30.1,29.87,NNW,337,0.0,0.0,71,0.00,,,0.00,WUHU21623XXSP,2013-03-05 09:35:00,
2013-03-05 01:40:00,38.3,29.8,29.86,NNW,337,0.0,0.0,71,0.00,,,0.00,WUHU21623XXSP,2013-03-05 09:40:00,
2013-03-05 01:45:00,38.3,30.1,29.86,NNW,337,0.0,0.0,72,0.00,,,0.00,WUHU21623XXSP,2013-03-05 09:45:00,
2013-03-05 01:50:00,38.1,29.9,29.87,NNW,337,0.0,0.0,72,0.00,,,0.00,WUHU21623XXSP,2013-03-05 09:50:00,
2013-03-05 01:55:00,37.9,29.7,29.86,NNW,337,0.0,0.0,72,0.00,,,0.00,WUHU21623XXSP,2013-03-05 09:55:00,
2013-03-05 02:00:00,37.9,29.7,29.86,NNW,337,0.0,0.0,72,0.00,,,0.00,WUHU21623XXSP,2013-03-05 10:00:00,
2013-03-05 02:05:00,37.9,29.7,29.86,NNW,337,0.0,0.0,72,0.00,,,0.00,WUHU21623XXSP,2013-03-05 10:05:00,
2013-03-05 02:10:00,37.9,29.7,29.86,NNW,337,0.0,0.0,72,0.00,,,0.00,WUHU21623XXSP,2013-03-05 10:10:00,
2013-03-05 02:15:00,37.7,29.6,29.86,NNW,337,0.0,0.0,72,0.00,,,0.00,WUHU21623XXSP,2013-03-05 10:15:00,
2013-03-05 02:20:00,37.6,29.5,29.86,NNW,337,0.0,0.0,72,0.00,,,0.00,WUHU21623XXSP,2013-03-05 10:20:00,
2013-03-05 02:25:00,37.4,29.3,29.86,NNW,337,0.0,0.0,72,0.00,,,0.00,WUHU21623XXSP,2013-03-05 10:25:00,
2013-03-05 02:30:00,37.4,29.3,29.86,NNW,337,0.0,0.0,72,0.00,,,0.00,WUHU21623XXSP,2013-03-05 10:30:00,
2013-03-05 02:35:00,37.4,28.9,29.85,NNW,337,0.0,0.0,71,0.00,,,0.00,WUHU21623XXSP,2013-03-05 10:35:00,
2013-03-05 02:40:00,37.4,28.9,29.85,NNW,337,0.0,0.0,71,0.00,,,0.00,WUHU21623XXSP,2013-03-05 10:40:00,
2013-03-05 02:45:00,37.2,28.7,29.85,NNW,337,0.0,0.0,71,0.00,,,0.00,WUHU21623XXSP,2013-03-05 10:45:00,
2013-03-05 02:50:00,37.0,28.9,29.85,NNW,337,0.0,0.0,72,0.00,,,0.00,WUHU21623XXSP,2013-03-05 10:50:00,
2013-03-05 02:55:00,37.0,28.9,29.86,NNW,337,0.0,0.0,72,0.00,,,0.00,WUHU21623XXSP,2013-03-05 10:55:00,
2013-03-05 03:00:00,37.0,28.9,29.85,NNW,337,0.0,0.0,72,0.00,,,0.00,WUHU21623XXSP,2013-03-05 11:00:00,
2013-03-05 03:05:00,37.0,28.9,29.85,NW,315,0.0,3.6,72,0.00,,,0.00,WUHU21623XXSP,2013-03-05 11:05:00,
2013-03-05 03:10:00,37.4,29.3,29.85,WNW,292,0.0,3.6,72,0.00,,,0.00,WUHU21623XXSP,2013-03-05 11:10:00,
2013-03-05 03:15:00,37.7,29.6,29.86,WNW,292,0.0,0.0,72,0.00,,,0.00,WUHU21623XXSP,2013-03-05 11:15:00,
2013-03-05 03:20:00,37.9,29.7,29.86,WNW,292,0.0,0.0,72,0.00,,,0.00,WUHU21623XXSP,2013-03-05 11:20:00,
2013-03-05 03:25:00,37.9,29.4,29.86,WNW,292,0.0,0.0,71,0.00,,,0.00,WUHU21623XXSP,2013-03-05 11:25:00,
2013-03-05 03:30:00,37.9,29.7,29.86,WNW,292,0.0,0.0,72,0.00,,,0.00,WUHU21623XXSP,2013-03-05 11:30:00,
2013-03-05 03:35:00,37.9,29.7,29.86,WNW,292,0.0,0.0,72,0.00,,,0.00,WUHU21623XXSP,2013-03-05 11:35:00,
2013-03-05 03:40:00,38.1,29.6,29.86,WNW,292,0.0,0.0,71,0.00,,,0.00,WUHU21623XXSP,2013-03-05 11:40:00,
2013-03-05 03:45:00,38.6,30.1,29.86,West,270,0.0,0.0,71,0.00,,,0.00,WUHU21623XXSP,2013-03-05 11:45:00,
2013-03-05 03:50:00,39.0,30.8,29.86,West,270,0.0,0.0,72,0.00,,,0.00,WUHU21623XXSP,2013-03-05 11:50:00,
2013-03-05 03:55:00,39.2,31.0,29.86,West,270,0.0,0.0,72,0.00,,,0.00,WUHU21623XXSP,2013-03-05 11:55:00,
2013-03-05 04:00:00,39.4,30.9,29.86,West,270,0.0,0.0,71,0.00,,,0.00,WUHU21623XXSP,2013-03-05 12:00:00,
2013-03-05 04:05:00,39.5,31.3,29.87,WSW,247,3.8,3.8,72,0.00,,,0.00,WUHU21623XXSP,2013-03-05 12:05:00,
2013-03-05 04:10:00,39.5,31.6,29.87,SW,225,5.1,5.4,73,0.00,,,0.00,WUHU21623XXSP,2013-03-05 12:10:00,
2013-03-05 04:15:00,39.7,31.8,29.87,WSW,247,5.6,6.7,73,0.00,,,0.00,WUHU21623XXSP,2013-03-05 12:15:00,
2013-03-05 04:20:00,40.1,32.5,29.87,SW,225,4.5,6.7,74,0.00,,,0.00,WUHU21623XXSP,2013-03-05 12:20:00,
2013-03-05 04:25:00,40.1,32.5,29.87,SW,225,4.0,5.6,74,0.00,,,0.00,WUHU21623XXSP,2013-03-05 12:25:00,
2013-03-05 04:30:00,40.4,33.2,29.87,SW,225,5.6,5.8,75,0.00,,,0.00,WUHU21623XXSP,2013-03-05 12:30:00,
2013-03-05 04:35:00,40.4,33.2,29.87,WSW,247,5.1,6.5,75,0.00,,,0.00,WUHU21623XXSP,2013-03-05 12:35:00,
2013-03-05 04:40:00,40.6,33.7,29.87,WSW,247,3.8,6.5,76,0.00,,,0.00,WUHU21623XXSP,2013-03-05 12:40:00,
2013-03-05 04:45:00,40.6,33.7,29.87,West,270,4.9,6.0,76,0.00,,,0.00,WUHU21623XXSP,2013-03-05 12:45:00,
2013-03-05 04:50:00,40.6,33.4,29.87,West,270,4.0,5.8,75,0.00,,,0.00,WUHU21623XXSP,2013-03-05 12:50:00,
2013-03-05 04:55:00,40.6,33.4,29.87,WSW,247,4.3,6.3,75,0.00,,,0.00,WUHU21623XXSP,2013-03-05 12:55:00,
2013-03-05 05:00:00,40.4,33.2,29.87,SW,225,3.4,6.3,75,0.00,,,0.00,WUHU21623XXSP,2013-03-05 13:00:00,
2013-03-05 05:05:00,40.3,33.1,29.87,SSW,202,5.1,5.6,75,0.00,,,0.00,WUHU21623XXSP,2013-03-05 13:05:00,
2013-03-05 05:10:00,40.1,32.9,29.87,SSW,202,3.6,5.4,75,0.00,,,0.00,WUHU21623XXSP,2013-03-05 13:10:00,
2013-03-05 05:15:00,39.9,32.7,29.87,WSW,247,3.1,5.1,75,0.00,,,0.00,WUHU21623XXSP,2013-03-05 13:15:00,
2013-03-05 05:20:00,39.7,32.5,29.87,WNW,292,5.4,7.6,75,0.00,,,0.00,WUHU21623XXSP,2013-03-05 13:20:00,
2013-03-05 05:25:00,39.7,32.5,29.87,WNW,292,6.9,7.6,75,0.00,,,0.00,WUHU21623XXSP,2013-03-05 13:25:00,
2013-03-05 05:30:00,39.7,32.5,29.87,West,270,4.9,8.7,75,0.00,,,0.00,WUHU21623XXSP,2013-03-05 13:30:00,
2013-03-05 05:35:00,40.1,32.9,29.86,WNW,292,5.6,8.7,75,0.00,,,0.00,WUHU21623XXSP,2013-03-05 13:35:00,
2013-03-05 05:40:00,40.4,33.2,29.86,West,270,5.4,7.6,75,0.00,,,0.00,WUHU21623XXSP,2013-03-05 13:40:00,
2013-03-05 05:45:00,40.6,33.7,29.86,West,270,10.1,10.3,76,0.00,,,0.00,WUHU21623XXSP,2013-03-05 13:45:00,
2013-03-05 05:50:00,41.0,34.1,29.86,West,270,7.8,12.1,76,0.00,,,0.00,WUHU21623XXSP,2013-03-05 13:50:00,
2013-03-05 05:55:00,41.0,34.1,29.87,West,270,6.9,12.1,76,0.00,,,0.00,WUHU21623XXSP,2013-03-05 13:55:00,
2013-03-05 06:00:00,41.2,34.3,29.86,West,270,5.4,10.7,76,0.00,,,0.00,WUHU21623XXSP,2013-03-05 14:00:00,
2013-03-05 06:05:00,41.3,34.4,29.86,WSW,247,7.2,9.6,76,0.00,,,0.00,WUHU21623XXSP,2013-03-05 14:05:00,
2013-03-05 06:10:00,41.3,34.4,29.87,West,270,5.6,8.1,76,0.00,,,0.00,WUHU21623XXSP,2013-03-05 14:10:00,
2013-03-05 06:15:00,41.5,34.5,29.87,WSW,247,5.6,7.6,76,0.00,,,0.00,WUHU21623XXSP,2013-03-05 14:15:00,
2013-03-05 06:20:00,41.5,34.5,29.86,WSW,247,8.5,8.7,76,0.00,,,0.00,WUHU21623XXSP,2013-03-05 14:20:00,
2013-03-05 06:25:00,41.5,34.9,29.86,West,270,7.4,10.7,77,0.00,,,0.00,WUHU21623XXSP,2013-03-05 14:25:00,
2013-03-05 06:31:00,41.5,34.9,29.86,West,270,7.6,10.7,77,0.00,,,0.00,WUHU21623XXSP,2013-03-05 14:31:00,
2013-03-05 06:36:00,41.5,34.9,29.86,WNW,292,10.7,13.4,77,0.00,,,0.00,WUHU21623XXSP,2013-03-05 14:36:00,
2013-03-05 06:41:00,41.5,34.9,29.85,West,270,6.0,13.4,77,0.00,,,0.00,WUHU21623XXSP,2013-03-05 14:41:00,
2013-03-05 06:46:00,41.7,35.1,29.85,WNW,292,5.1,10.5,77,0.00,,,0.00,WUHU21623XXSP,2013-03-05 14:46:00,
2013-03-05 06:51:00,41.9,35.3,29.85,WNW,292,5.4,8.5,77,0.00,,,0.00,WUHU21623XXSP,2013-03-05 14:51:00,
2013-03-05 06:56:00,41.9,35.3,29.85,WNW,292,6.3,7.6,77,0.00,,,0.00,WUHU21623XXSP,2013-03-05 14:56:00,
2013-03-05 07:01:00,41.9,35.3,29.86,West,270,5.8,7.2,77,0.00,,,0.00,WUHU21623XXSP,2013-03-05 15:01:00,
2013-03-05 07:06:00,42.2,35.6,29.86,WNW,292,9.8,9.8,77,0.00,,,0.00,WUHU21623XXSP,2013-03-05 15:06:00,
2013-03-05 07:11:00,42.4,35.7,29.86,WNW,292,9.6,12.5,77,0.00,,,0.00,WUHU21623XXSP,2013-03-05 15:11:00,
2013-03-05 07:16:00,42.4,35.7,29.86,WNW,292,12.3,15.4,77,0.00,,,0.00,WUHU21623XXSP,2013-03-05 15:16:00,
2013-03-05 07:21:00,42.4,35.7,29.87,WNW,292,11.2,15.4,77,0.00,,,0.00,WUHU21623XXSP,2013-03-05 15:21:00,
2013-03-05 07:26:00,42.4,35.7,29.87,WNW,292,10.3,13.6,77,0.00,,,0.00,WUHU21623XXSP,2013-03-05 15:26:00,
2013-03-05 07:31:00,42.4,35.7,29.87,NW,315,10.1,13.6,77,0.00,,,0.00,WUHU21623XXSP,2013-03-05 15:31:00,
2013-03-05 07:36:00,42.4,35.7,29.87,NW,315,12.5,13.6,77,0.00,,,0.00,WUHU21623XXSP,2013-03-05 15:36:00,
2013-03-05 07:41:00,42.8,36.1,29.87,NW,315,9.4,14.8,77,0.00,,,0.00,WUHU21623XXSP,2013-03-05 15:41:00,
2013-03-05 07:46:00,43.0,36.3,29.87,WNW,292,9.2,14.8,77,0.00,,,0.00,WUHU21623XXSP,2013-03-05 15:46:00,
2013-03-05 07:51:00,43.0,36.3,29.86,NW,315,8.9,12.3,77,0.00,,,0.00,WUHU21623XXSP,2013-03-05 15:51:00,
2013-03-05 07:56:00,43.1,36.4,29.86,West,270,9.4,12.1,77,0.00,,,0.00,WUHU21623XXSP,2013-03-05 15:56:00,
2013-03-05 08:01:00,43.3,36.6,29.86,West,270,5.6,11.4,77,0.00,,,0.00,WUHU21623XXSP,2013-03-05 16:01:00,
2013-03-05 08:06:00,43.5,36.8,29.86,West,270,9.8,12.1,77,0.00,,,0.00,WUHU21623XXSP,2013-03-05 16:06:00,
2013-03-05 08:11:00,43.7,37.3,29.86,West,270,13.2,13.2,78,0.00,,,0.00,WUHU21623XXSP,2013-03-05 16:11:00,
2013-03-05 08:16:00,43.7,37.3,29.86,WSW,247,9.2,13.4,78,0.00,,,0.00,WUHU21623XXSP,2013-03-05 16:16:00,
2013-03-05 08:21:00,44.0,37.6,29.86,West,270,6.9,13.4,78,0.00,,,0.00,WUHU21623XXSP,2013-03-05 16:21:00,
2013-03-05 08:26:00,44.2,37.8,29.86,WSW,247,9.8,13.0,78,0.00,,,0.00,WUHU21623XXSP,2013-03-05 16:26:00,
2013-03-05 08:31:00,44.6,38.2,29.85,WSW,247,10.5,13.0,78,0.00,,,0.00,WUHU21623XXSP,2013-03-05 16:31:00,
2013-03-05 08:36:00,44.8,38.1,29.85,West,270,6.9,11.9,77,0.00,,,0.00,WUHU21623XXSP,2013-03-05 16:36:00,
2013-03-05 08:41:00,45.1,38.4,29.85,WSW,247,10.3,11.0,77,0.00,,,0.00,WUHU21623XXSP,2013-03-05 16:41:00,
2013-03-05 08:46:00,45.3,38.6,29.86,WSW,247,6.9,10.7,77,0.00,,,0.00,WUHU21623XXSP,2013-03-05 16:46:00,
2013-03-05 08:51:00,45.7,39.0,29.85,WSW,247,8.1,10.7,77,0.00,,,0.00,WUHU21623XXSP,2013-03-05 16:51:00,
2013-03-05 08:56:00,46.0,39.2,29.85,West,270,6.7,12.8,77,0.00,,,0.00,WUHU21623XXSP,2013-03-05 16:56:00,
2013-03-05 09:01:00,46.4,39.6,29.85,WSW,247,8.7,12.8,77,0.00,,,0.00,WUHU21623XXSP,2013-03-05 17:01:00,
2013-03-05 09:06:00,46.7,39.6,29.85,West,270,4.0,11.4,76,0.00,,,0.00,WUHU21623XXSP,2013-03-05 17:06:00,
2013-03-05 09:11:00,47.1,40.0,29.85,West,270,7.4,10.7,76,0.00,,,0.00,WUHU21623XXSP,2013-03-05 17:11:00,
2013-03-05 09:16:00,47.3,40.2,29.85,WSW,247,7.6,10.7,76,0.00,,,0.00,WUHU21623XXSP,2013-03-05 17:16:00,
2013-03-05 09:21:00,47.6,40.1,29.85,West,270,3.6,10.3,75,0.00,,,0.00,WUHU21623XXSP,2013-03-05 17:21:00,
2013-03-05 09:26:00,47.8,40.0,29.85,WSW,247,9.8,10.5,74,0.00,,,0.00,WUHU21623XXSP,2013-03-05 17:26:00,
2013-03-05 09:31:00,48.2,40.0,29.85,West,270,7.4,12.5,73,0.00,,,0.00,WUHU21623XXSP,2013-03-05 17:31:00,
2013-03-05 09:36:00,48.5,40.3,29.85,WSW,247,9.2,12.5,73,0.00,,,0.00,WUHU21623XXSP,2013-03-05 17:36:00,
2013-03-05 09:41:00,48.9,40.0,29.85,West,270,7.6,13.2,71,0.00,,,0.00,WUHU21623XXSP,2013-03-05 17:41:00,
2013-03-05 09:46:00,49.4,40.1,29.85,WSW,247,6.7,13.2,70,0.00,,,0.00,WUHU21623XXSP,2013-03-05 17:46:00,
2013-03-05 09:51:00,49.6,39.6,29.84,SW,225,7.2,11.6,68,0.00,,,0.00,WUHU21623XXSP,2013-03-05 17:51:00,
2013-03-05 09:56:00,50.0,39.6,29.84,SW,225,3.8,10.1,67,0.00,,,0.00,WUHU21623XXSP,2013-03-05 17:56:00,
2013-03-05 10:01:00,50.3,39.5,29.84,SSW,202,6.9,10.1,66,0.00,,,0.00,WUHU21623XXSP,2013-03-05 18:01:00,
2013-03-05 10:06:00,50.7,39.9,29.84,SSE,157,4.5,10.1,66,0.00,,,0.00,WUHU21623XXSP,2013-03-05 18:06:00,
2013-03-05 10:11:00,51.2,40.0,29.84,WSW,247,5.4,10.1,65,0.00,,,0.00,WUHU21623XXSP,2013-03-05 18:11:00,
2013-03-05 10:16:00,51.4,39.7,29.84,SW,225,4.0,10.5,64,0.00,,,0.00,WUHU21623XXSP,2013-03-05 18:16:00,
2013-03-05 10:21:00,51.8,39.7,29.84,SW,225,0.0,10.5,63,0.00,,,0.00,WUHU21623XXSP,2013-03-05 18:21:00,
2013-03-05 10:26:00,52.3,40.2,29.84,WSW,247,10.1,10.1,63,0.00,,,0.00,WUHU21623XXSP,2013-03-05 18:26:00,
2013-03-05 10:31:00,52.5,40.0,29.84,WNW,292,6.3,10.1,62,0.00,,,0.00,WUHU21623XXSP,2013-03-05 18:31:00,
2013-03-05 10:36:00,53.0,40.0,29.84,WNW,292,4.3,10.1,61,0.00,,,0.00,WUHU21623XXSP,2013-03-05 18:36:00,
2013-03-05 10:41:00,53.2,40.2,29.84,SW,225,9.8,11.4,61,0.00,,,0.00,WUHU21623XXSP,2013-03-05 18:41:00,
2013-03-05 10:46:00,53.8,40.3,29.84,West,270,3.6,11.4,60,0.00,,,0.00,WUHU21623XXSP,2013-03-05 18:46:00,
2013-03-05 10:51:00,54.1,40.2,29.84,West,270,4.5,8.1,59,0.00,,,0.00,WUHU21623XXSP,2013-03-05 18:51:00,
2013-03-05 10:56:00,54.5,40.1,29.84,WNW,292,4.9,11.9,58,0.00,,,0.00,WUHU21623XXSP,2013-03-05 18:56:00,
2013-03-05 11:01:00,54.8,40.4,29.84,NW,315,16.6,16.6,58,0.00,,,0.00,WUHU21623XXSP,2013-03-05 19:01:00,
2013-03-05 11:06:00,55.0,40.6,29.84,WNW,292,11.9,16.6,58,0.00,,,0.00,WUHU21623XXSP,2013-03-05 19:06:00,
2013-03-05 11:11:00,55.4,41.0,29.84,NW,315,11.0,15.4,58,0.00,,,0.00,WUHU21623XXSP,2013-03-05 19:11:00,
2013-03-05 11:16:00,55.7,41.2,29.84,WNW,292,7.6,16.1,58,0.00,,,0.00,WUHU21623XXSP,2013-03-05 19:16:00,
2013-03-05 11:21:00,55.9,41.4,29.84,West,270,2.7,16.1,58,0.00,,,0.00,WUHU21623XXSP,2013-03-05 19:21:00,
2013-03-05 11:26:00,55.9,41.4,29.84,WSW,247,11.0,11.0,58,0.00,,,0.00,WUHU21623XXSP,2013-03-05 19:26:00,
2013-03-05 11:31:00,56.6,40.7,29.83,SW,225,8.7,12.8,55,0.00,,,0.00,WUHU21623XXSP,2013-03-05 19:31:00,
2013-03-05 11:36:00,56.8,40.9,29.84,West,270,15.9,15.9,55,0.00,,,0.00,WUHU21623XXSP,2013-03-05 19:36:00,
2013-03-05 11:41:00,56.8,40.4,29.84,WSW,247,11.2,15.9,54,0.00,,,0.00,WUHU21623XXSP,2013-03-05 19:41:00,
2013-03-05 11:46:00,57.2,40.8,29.83,West,267,10.4,15.2,54,0.00,,,0.00,WUHU21623XXSP,2013-03-05 19:46:00,
2013-03-05 11:51:00,57.5,40.5,29.83,SW,225,10.7,18.8,53,0.00,,,0.00,WUHU21623XXSP,2013-03-05 19:51:00,
2013-03-05 11:56:00,57.5,40.5,29.83,WSW,247,9.8,18.8,53,0.00,,,0.00,WUHU21623XXSP,2013-03-05 19:56:00,
2013-03-05 12:01:00,57.5,40.0,29.83,WSW,247,16.3,16.8,52,0.00,,,0.00,WUHU21623XXSP,2013-03-05 20:01:00,
2013-03-05 12:06:00,57.7,40.2,29.82,WSW,240,12.4,16.8,52,0.00,,,0.00,WUHU21623XXSP,2013-03-05 20:06:00,
2013-03-05 12:11:00,57.9,40.4,29.82,WSW,247,17.4,17.7,52,0.00,,,0.00,WUHU21623XXSP,2013-03-05 20:11:00,
2013-03-05 12:16:00,57.9,39.9,29.82,WSW,247,10.1,17.7,51,0.00,,,0.00,WUHU21623XXSP,2013-03-05 20:16:00,
2013-03-05 12:21:00,57.9,39.9,29.82,SW,225,17.7,17.7,51,0.00,,,0.00,WUHU21623XXSP,2013-03-05 20:21:00,
2013-03-05 12:26:00,58.1,40.1,29.81,WSW,247,17.2,22.4,51,0.00,,,0.00,WUHU21623XXSP,2013-03-05 20:26:00,
2013-03-05 12:31:00,58.1,40.1,29.81,WSW,241,18.0,23.9,51,0.00,,,0.00,WUHU21623XXSP,2013-03-05 20:31:00,
2013-03-05 12:36:00,58.1,39.6,29.81,WSW,247,21.9,25.1,50,0.00,,,0.00,WUHU21623XXSP,2013-03-05 20:36:00,
2013-03-05 12:41:00,58.1,39.6,29.81,WSW,247,17.4,25.1,50,0.00,,,0.00,WUHU21623XXSP,2013-03-05 20:41:00,
2013-03-05 12:46:00,58.4,39.8,29.81,WSW,247,19.9,23.3,50,0.00,,,0.00,WUHU21623XXSP,2013-03-05 20:46:00,
2013-03-05 12:51:00,58.4,40.4,29.81,WSW,247,12.8,23.0,51,0.00,,,0.00,WUHU21623XXSP,2013-03-05 20:51:00,
2013-03-05 12:56:00,58.4,40.4,29.80,WSW,247,23.7,24.2,51,0.00,,,0.00,WUHU21623XXSP,2013-03-05 20:56:00,
2013-03-05 13:01:00,58.6,40.5,29.80,West,270,17.7,26.8,51,0.00,,,0.00,WUHU21623XXSP,2013-03-05 21:01:00,
2013-03-05 13:06:00,58.8,40.7,29.79,West,270,16.1,26.8,51,0.00,,,0.00,WUHU21623XXSP,2013-03-05 21:06:00,
2013-03-05 13:11:00,59.0,40.9,29.79,WSW,247,23.7,29.8,51,0.00,,,0.00,WUHU21623XXSP,2013-03-05 21:11:00,
2013-03-05 13:16:00,59.0,40.9,29.79,West,270,25.1,29.8,51,0.00,,,0.00,WUHU21623XXSP,2013-03-05 21:16:00,
2013-03-05 13:21:00,59.2,40.6,29.79,WSW,247,21.0,27.3,50,0.00,,,0.00,WUHU21623XXSP,2013-03-05 21:21:00,
2013-03-05 13:26:00,59.2,40.6,29.79,West,270,27.3,27.3,50,0.00,,,0.00,WUHU21623XXSP,2013-03-05 21:26:00,
2013-03-05 13:31:00,59.2,40.6,29.79,West,270,10.1,27.3,50,0.00,,,0.00,WUHU21623XXSP,2013-03-05 21:31:00,
2013-03-05 13:36:00,59.3,41.2,29.79,West,270,16.1,26.2,51,0.00,,,0.00,WUHU21623XXSP,2013-03-05 21:36:00,
2013-03-05 13:41:00,59.5,41.9,29.79,West,270,17.7,24.2,52,0.00,,,0.00,WUHU21623XXSP,2013-03-05 21:41:00,
2013-03-05 13:46:00,59.5,41.9,29.78,West,270,20.1,24.6,52,0.00,,,0.00,WUHU21623XXSP,2013-03-05 21:46:00,
2013-03-05 13:51:00,59.5,41.9,29.78,WNW,292,21.5,24.6,52,0.00,,,0.00,WUHU21623XXSP,2013-03-05 21:51:00,
2013-03-05 13:56:00,59.5,42.4,29.77,West,270,17.7,23.7,53,0.00,,,0.00,WUHU21623XXSP,2013-03-05 21:56:00,
2013-03-05 14:01:00,59.5,42.4,29.77,West,270,17.0,20.1,53,0.00,,,0.00,WUHU21623XXSP,2013-03-05 22:01:00,
2013-03-05 14:06:00,59.5,41.9,29.77,West,270,21.5,24.6,52,0.00,,,0.00,WUHU21623XXSP,2013-03-05 22:06:00,
2013-03-05 14:11:00,59.7,42.6,29.77,WSW,247,24.8,27.1,53,0.00,,,0.00,WUHU21623XXSP,2013-03-05 22:11:00,
2013-03-05 14:16:00,59.7,41.6,29.77,SW,225,24.2,27.7,51,0.00,,,0.00,WUHU21623XXSP,2013-03-05 22:16:00,
2013-03-05 14:21:00,59.5,40.8,29.77,SW,225,24.8,30.4,50,0.00,,,0.00,WUHU21623XXSP,2013-03-05 22:21:00,
2013-03-05 14:26:00,59.5,40.8,29.77,WSW,247,27.7,30.4,50,0.00,,,0.00,WUHU21623XXSP,2013-03-05 22:26:00,
2013-03-05 14:31:00,59.3,40.7,29.77,WSW,247,21.7,27.7,50,0.00,,,0.00,WUHU21623XXSP,2013-03-05 22:31:00,
2013-03-05 14:36:00,59.3,40.1,29.77,SW,225,21.7,27.3,49,0.00,,,0.00,WUHU21623XXSP,2013-03-05 22:36:00,
2013-03-05 14:41:00,59.2,40.6,29.77,SW,225,21.5,23.5,50,0.00,,,0.00,WUHU21623XXSP,2013-03-05 22:41:00,
2013-03-05 14:46:00,59.2,40.6,29.78,WSW,247,25.7,25.7,50,0.00,,,0.00,WUHU21623XXSP,2013-03-05 22:46:00,
2013-03-05 14:51:00,59.0,40.4,29.78,WSW,247,15.0,25.7,50,0.00,,,0.00,WUHU21623XXSP,2013-03-05 22:51:00,
2013-03-05 14:56:00,59.0,40.9,29.78,SW,225,16.3,27.3,51,0.00,,,0.00,WUHU21623XXSP,2013-03-05 22:56:00,
2013-03-05 15:01:00,59.0,40.9,29.78,WSW,247,19.5,27.3,51,0.00,,,0.00,WUHU21623XXSP,2013-03-05 23:01:00,
2013-03-05 15:06:00,59.0,40.9,29.78,West,270,21.0,23.7,51,0.00,,,0.00,WUHU21623XXSP,2013-03-05 23:06:00,
2013-03-05 15:11:00,59.0,40.9,29.78,WSW,247,16.1,23.0,51,0.00,,,0.00,WUHU21623XXSP,2013-03-05 23:11:00,
2013-03-05 15:16:00,59.2,41.1,29.77,WSW,247,19.7,23.0,51,0.00,,,0.00,WUHU21623XXSP,2013-03-05 23:16:00,
2013-03-05 15:21:00,59.2,41.1,29.78,West,270,11.6,20.1,51,0.00,,,0.00,WUHU21623XXSP,2013-03-05 23:21:00,
2013-03-05 15:26:00,59.0,40.9,29.78,WSW,247,18.3,20.4,51,0.00,,,0.00,WUHU21623XXSP,2013-03-05 23:26:00,
2013-03-05 15:31:00,59.0,40.9,29.78,WSW,248,15.3,20.6,51,0.00,,,0.00,WUHU21623XXSP,2013-03-05 23:31:00,
2013-03-05 15:36:00,59.0,40.9,29.78,SW,225,17.4,22.8,51,0.00,,,0.00,WUHU21623XXSP,2013-03-05 23:36:00,
2013-03-05 15:41:00,58.6,40.5,29.78,WSW,247,19.0,22.8,51,0.00,,,0.00,WUHU21623XXSP,2013-03-05 23:41:00,
2013-03-05 15:46:00,58.6,40.5,29.78,WSW,245,17.3,22.4,51,0.00,,,0.00,WUHU21623XXSP,2013-03-05 23:46:00,
2013-03-05 15:51:00,58.4,40.4,29.78,WSW,247,12.1,22.4,51,0.00,,,0.00,WUHU21623XXSP,2013-03-05 23:51:00,
2013-03-05 15:56:00,58.3,40.3,29.77,WSW,247,15.2,21.7,51,0.00,,,0.00,WUHU21623XXSP,2013-03-05 23:56:00,
2013-03-05 16:01:00,58.1,40.1,29.77,SW,225,16.8,21.7,51,0.00,,,0.00,WUHU21623XXSP,2013-03-06 00:01:00,
2013-03-05 16:06:00,57.9,39.9,29.77,SW,225,15.4,21.0,51,0.00,,,0.00,WUHU21623XXSP,2013-03-06 00:06:00,
2013-03-05 16:11:00,57.9,39.9,29.76,WSW,240,15.7,18.8,51,0.00,,,0.00,WUHU21623XXSP,2013-03-06 00:11:00,
2013-03-05 16:16:00,57.7,39.7,29.76,SW,225,11.2,19.5,51,0.00,,,0.00,WUHU21623XXSP,2013-03-06 00:16:00,
2013-03-05 16:21:00,57.5,39.5,29.76,WSW,247,15.2,19.5,51,0.00,,,0.00,WUHU21623XXSP,2013-03-06 00:21:00,
2013-03-05 16:26:00,57.4,39.4,29.76,WSW,247,13.0,18.6,51,0.00,,,0.00,WUHU21623XXSP,2013-03-06 00:26:00,
2013-03-05 16:31:00,57.2,39.2,29.76,WSW,247,11.4,18.1,51,0.00,,,0.00,WUHU21623XXSP,2013-03-06 00:31:00,
2013-03-05 16:36:00,56.8,38.9,29.76,WSW,247,17.7,17.7,51,0.00,,,0.00,WUHU21623XXSP,2013-03-06 00:36:00,
2013-03-05 16:41:00,56.8,38.9,29.76,WSW,247,15.7,17.7,51,0.00,,,0.00,WUHU21623XXSP,2013-03-06 00:41:00,
2013-03-05 16:46:00,56.8,38.9,29.76,WSW,247,19.9,19.9,51,0.00,,,0.00,WUHU21623XXSP,2013-03-06 00:46:00,
2013-03-05 16:51:00,56.6,39.2,29.75,WSW,247,8.7,19.9,52,0.00,,,0.00,WUHU21623XXSP,2013-03-06 00:51:00,
2013-03-05 16:56:00,56.5,39.1,29.75,SW,225,11.6,16.3,52,0.00,,,0.00,WUHU21623XXSP,2013-03-06 00:56:00,
2013-03-05 17:01:00,56.1,38.7,29.74,WSW,247,13.4,17.2,52,0.00,,,0.00,WUHU21623XXSP,2013-03-06 01:01:00,
2013-03-05 17:06:00,55.9,39.1,29.74,West,270,10.1,17.2,53,0.00,,,0.00,WUHU21623XXSP,2013-03-06 01:06:00,
2013-03-05 17:11:00,55.7,38.9,29.74,WSW,247,11.0,16.3,53,0.00,,,0.00,WUHU21623XXSP,2013-03-06 01:11:00,
2013-03-05 17:16:00,55.4,38.6,29.73,WSW,247,16.3,16.3,53,0.00,,,0.00,WUHU21623XXSP,2013-03-06 01:16:00,
2013-03-05 17:21:00,55.0,38.2,29.74,SW,225,13.4,18.3,53,0.00,,,0.00,WUHU21623XXSP,2013-03-06 01:21:00,
2013-03-05 17:26:00,54.5,37.7,29.73,WSW,237,13.6,18.3,53,0.00,,,0.00,WUHU21623XXSP,2013-03-06 01:26:00,
2013-03-05 17:31:00,53.9,37.2,29.72,WSW,247,13.4,18.1,53,0.00,,,0.00,WUHU21623XXSP,2013-03-06 01:31:00,
2013-03-05 17:36:00,53.8,37.6,29.72,WSW,240,14.1,18.1,54,0.00,,,0.00,WUHU21623XXSP,2013-03-06 01:36:00,
2013-03-05 17:41:00,53.4,37.2,29.72,West,270,11.4,17.7,54,0.00,,,0.00,WUHU21623XXSP,2013-03-06 01:41:00,
2013-03-05 17:46:00,53.2,37.0,29.72,WSW,247,12.5,17.7,54,0.00,,,0.00,WUHU21623XXSP,2013-03-06 01:46:00,
2013-03-05 17:51:00,52.9,37.2,29.72,West,270,15.4,17.7,55,0.00,,,0.00,WUHU21623XXSP,2013-03-06 01:51:00,
2013-03-05 17:56:00,52.5,36.8,29.72,WSW,247,13.6,16.6,55,0.00,,,0.00,WUHU21623XXSP,2013-03-06 01:56:00,
2013-03-05 18:01:00,52.3,36.7,29.72,WSW,250,13.3,18.6,55,0.00,,,0.00,WUHU21623XXSP,2013-03-06 02:01:00,
2013-03-05 18:06:00,52.3,36.7,29.71,WSW,247,15.0,19.0,55,0.00,,,0.00,WUHU21623XXSP,2013-03-06 02:06:00,
2013-03-05 18:11:00,52.1,36.5,29.72,SW,225,15.7,21.5,55,0.00,,,0.00,WUHU21623XXSP,2013-03-06 02:11:00,
2013-03-05 18:16:00,51.8,36.7,29.72,WSW,243,15.4,21.5,56,0.00,,,0.00,WUHU21623XXSP,2013-03-06 02:16:00,
2013-03-05 18:21:00,51.4,36.3,29.71,WSW,247,15.2,18.1,56,0.00,,,0.00,WUHU21623XXSP,2013-03-06 02:21:00,
2013-03-05 18:26:00,51.2,36.6,29.71,WSW,244,14.3,18.1,57,0.00,,,0.00,WUHU21623XXSP,2013-03-06 02:26:00,
2013-03-05 18:31:00,50.9,36.3,29.71,WSW,247,13.4,17.4,57,0.00,,,0.00,WUHU21623XXSP,2013-03-06 02:31:00,
2013-03-05 18:36:00,50.5,35.9,29.71,WSW,247,11.4,16.8,57,0.00,,,0.00,WUHU21623XXSP,2013-03-06 02:36:00,
2013-03-05 18:41:00,50.3,36.2,29.71,WSW,247,11.9,16.8,58,0.00,,,0.00,WUHU21623XXSP,2013-03-06 02:41:00,
2013-03-05 18:46:00,50.2,36.1,29.70,SW,225,8.5,15.4,58,0.00,,,0.00,WUHU21623XXSP,2013-03-06 02:46:00,
2013-03-05 18:52:00,50.0,35.9,29.70,SW,225,16.1,16.1,58,0.00,,,0.00,WUHU21623XXSP,2013-03-06 02:52:00,
2013-03-05 18:56:00,49.6,35.5,29.71,SSW,202,13.6,16.1,58,0.00,,,0.00,WUHU21623XXSP,2013-03-06 02:56:00,
2013-03-05 19:01:00,49.4,35.3,29.71,WSW,247,13.2,20.6,58,0.00,,,0.00,WUHU21623XXSP,2013-03-06 03:01:00,
2013-03-05 19:06:00,49.3,35.7,29.71,SW,230,12.7,20.6,59,0.00,,,0.00,WUHU21623XXSP,2013-03-06 03:06:00,
2013-03-05 19:11:00,49.1,35.5,29.71,SW,225,13.2,17.2,59,0.00,,,0.00,WUHU21623XXSP,2013-03-06 03:11:00,
2013-03-05 19:16:00,49.1,35.5,29.70,SW,225,12.1,17.2,59,0.00,,,0.00,WUHU21623XXSP,2013-03-06 03:16:00,
2013-03-05 19:22:00,49.1,35.9,29.70,West,270,12.8,16.3,60,0.00,,,0.00,WUHU21623XXSP,2013-03-06 03:22:00,
2013-03-05 19:26:00,49.1,35.9,29.70,SW,225,14.8,21.7,60,0.00,,,0.00,WUHU21623XXSP,2013-03-06 03:26:00,
2013-03-05 19:32:00,48.9,36.1,29.70,WSW,247,25.7,25.7,61,0.00,,,0.00,WUHU21623XXSP,2013-03-06 03:32:00,
2013-03-05 19:37:00,48.9,36.1,29.69,WSW,247,22.1,25.7,61,0.00,,,0.00,WUHU21623XXSP,2013-03-06 03:37:00,
2013-03-05 19:42:00,48.9,36.1,29.70,SW,225,22.6,30.2,61,0.00,,,0.00,WUHU21623XXSP,2013-03-06 03:42:00,
2013-03-05 19:47:00,49.1,36.3,29.70,SSW,202,21.5,30.2,61,0.00,,,0.00,WUHU21623XXSP,2013-03-06 03:47:00,
2013-03-05 19:52:00,49.1,35.9,29.71,SW,225,19.7,29.5,60,0.00,,,0.00,WUHU21623XXSP,2013-03-06 03:52:00,
2013-03-05 19:57:00,49.1,35.9,29.70,SW,225,13.4,26.8,60,0.00,,,0.00,WUHU21623XXSP,2013-03-06 03:57:00,
2013-03-05 20:02:00,49.1,35.9,29.70,West,270,15.4,22.1,60,0.00,,,0.00,WUHU21623XXSP,2013-03-06 04:02:00,
2013-03-05 20:07:00,49.1,35.9,29.71,WSW,247,17.9,22.8,60,0.00,,,0.00,WUHU21623XXSP,2013-03-06 04:07:00,
2013-03-05 20:12:00,49.1,35.5,29.71,WSW,247,19.0,22.8,59,0.00,,,0.00,WUHU21623XXSP,2013-03-06 04:12:00,
2013-03-05 20:17:00,48.9,35.7,29.71,WSW,247,22.6,27.3,60,0.00,,,0.00,WUHU21623XXSP,2013-03-06 04:17:00,
2013-03-05 20:22:00,48.9,35.7,29.70,WSW,247,21.9,27.3,60,0.00,,,0.00,WUHU21623XXSP,2013-03-06 04:22:00,
2013-03-05 20:27:00,48.9,35.7,29.71,SW,225,17.9,27.3,60,0.00,,,0.00,WUHU21623XXSP,2013-03-06 04:27:00,
2013-03-05 20:32:00,48.7,35.9,29.70,SW,225,19.0,27.3,61,0.00,,,0.00,WUHU21623XXSP,2013-03-06 04:32:00,
2013-03-05 20:37:00,48.7,35.9,29.70,WSW,247,20.6,25.5,61,0.00,,,0.00,WUHU21623XXSP,2013-03-06 04:37:00,
2013-03-05 20:42:00,48.7,35.9,29.70,SW,225,17.4,23.9,61,0.00,,,0.00,WUHU21623XXSP,2013-03-06 04:42:00,
2013-03-05 20:47:00,48.7,35.9,29.70,WSW,247,21.9,24.2,61,0.00,,,0.00,WUHU21623XXSP,2013-03-06 04:47:00,
2013-03-05 20:52:00,48.7,36.4,29.70,WSW,247,19.9,27.3,62,0.00,,,0.00,WUHU21623XXSP,2013-03-06 04:52:00,
2013-03-05 20:57:00,48.7,36.4,29.70,WSW,247,21.3,27.3,62,0.00,,,0.00,WUHU21623XXSP,2013-03-06 04:57:00,
2013-03-05 21:00:00,48.5,36.2,29.70,WSW,240,21.1,27.3,62,0.00,,,0.00,WUHU21623XXSP,2013-03-06 05:00:00,
2013-03-05 21:05:00,48.5,36.2,29.70,SW,225,18.6,26.6,62,0.00,,,0.00,WUHU21623XXSP,2013-03-06 05:05:00,
2013-03-05 21:10:00,48.5,36.2,29.71,WSW,247,24.4,26.4,62,0.00,,,0.00,WUHU21623XXSP,2013-03-06 05:10:00,
2013-03-05 21:15:00,48.5,36.6,29.71,WSW,247,14.8,26.4,63,0.00,,,0.00,WUHU21623XXSP,2013-03-06 05:15:00,
2013-03-05 21:20:00,48.5,36.6,29.71,WSW,247,16.8,24.4,63,0.00,,,0.00,WUHU21623XXSP,2013-03-06 05:20:00,
2013-03-05 21:25:00,48.5,36.6,29.70,SW,236,15.3,20.6,63,0.00,,,0.00,WUHU21623XXSP,2013-03-06 05:25:00,
2013-03-05 21:30:00,48.7,36.4,29.69,SW,225,16.3,23.0,62,0.00,,,0.00,WUHU21623XXSP,2013-03-06 05:30:00,
2013-03-05 21:35:00,48.9,36.5,29.69,SW,225,13.0,24.4,62,0.00,,,0.00,WUHU21623XXSP,2013-03-06 05:35:00,
2013-03-05 21:40:00,49.3,36.9,29.69,SSW,202,18.1,23.0,62,0.00,,,0.00,WUHU21623XXSP,2013-03-06 05:40:00,
2013-03-05 21:45:00,49.4,36.2,29.69,SW,225,16.6,26.2,60,0.00,,,0.00,WUHU21623XXSP,2013-03-06 05:45:00,
2013-03-05 21:50:00,49.6,36.4,29.70,SW,225,19.9,26.2,60,0.00,,,0.00,WUHU21623XXSP,2013-03-06 05:50:00,
2013-03-05 21:55:00,49.8,36.1,29.71,SW,225,19.9,24.8,59,0.00,,,0.00,WUHU21623XXSP,2013-03-06 05:55:00,
2013-03-05 22:00:00,50.0,36.7,29.71,SW,225,24.2,25.9,60,0.00,,,0.00,WUHU21623XXSP,2013-03-06 06:00:00,
2013-03-05 22:05:00,49.8,37.0,29.71,SW,225,17.2,26.8,61,0.00,,,0.00,WUHU21623XXSP,2013-03-06 06:05:00,
2013-03-05 22:10:00,49.6,37.2,29.71,SSW,202,23.0,26.8,62,0.00,,,0.00,WUHU21623XXSP,2013-03-06 06:10:00,
2013-03-05 22:15:00,49.4,37.0,29.71,SSW,210,17.9,23.0,62,0.00,,,0.00,WUHU21623XXSP,2013-03-06 06:15:00,
2013-03-05 22:20:00,49.4,37.0,29.71,SW,225,12.1,23.0,62,0.00,,,0.00,WUHU21623XXSP,2013-03-06 06:20:00,
2013-03-05 22:25:00,49.4,37.0,29.70,SSW,202,11.4,17.9,62,0.00,,,0.00,WUHU21623XXSP,2013-03-06 06:25:00,
2013-03-05 22:30:00,49.3,36.9,29.70,SSW,202,10.3,15.2,62,0.00,,,0.00,WUHU21623XXSP,2013-03-06 06:30:00,
2013-03-05 22:35:00,49.3,36.9,29.69,SW,225,12.1,19.9,62,0.00,,,0.00,WUHU21623XXSP,2013-03-06 06:35:00,
2013-03-05 22:40:00,49.1,37.1,29.69,SSW,202,16.3,19.9,63,0.00,,,0.00,WUHU21623XXSP,2013-03-06 06:40:00,
2013-03-05 22:45:00,49.1,37.1,29.69,SW,225,11.6,21.0,63,0.00,,,0.00,WUHU21623XXSP,2013-03-06 06:45:00,
2013-03-05 22:50:00,48.9,37.4,29.68,SW,217,13.2,21.0,64,0.00,,,0.00,WUHU21623XXSP,2013-03-06 06:50:00,
2013-03-05 22:55:00,48.9,37.0,29.68,SW,225,10.7,19.2,63,0.00,,,0.00,WUHU21623XXSP,2013-03-06 06:55:00,
2013-03-05 23:00:00,48.9,37.0,29.68,SSW,202,8.3,17.7,63,0.00,,,0.00,WUHU21623XXSP,2013-03-06 07:00:00,
2013-03-05 23:05:00,49.1,37.1,29.68,SW,225,6.5,13.4,63,0.00,,,0.00,WUHU21623XXSP,2013-03-06 07:05:00,
2013-03-05 23:10:00,49.1,37.1,29.68,SW,225,6.3,13.2,63,0.00,,,0.00,WUHU21623XXSP,2013-03-06 07:10:00,
2013-03-05 23:15:00,49.1,37.6,29.68,SW,225,9.8,13.2,64,0.00,,,0.00,WUHU21623XXSP,2013-03-06 07:15:00,
2013-03-05 23:20:00,49.3,37.7,29.68,SW,225,7.4,13.2,64,0.00,,,0.00,WUHU21623XXSP,2013-03-06 07:20:00,
2013-03-05 23:25:00,49.4,37.8,29.68,SW,225,8.7,13.2,64,0.00,,,0.00,WUHU21623XXSP,2013-03-06 07:25:00,
2013-03-05 23:30:00,49.4,37.8,29.68,SW,225,7.4,16.3,64,0.00,,,0.00,WUHU21623XXSP,2013-03-06 07:30:00,
2013-03-05 23:35:00,49.1,37.6,29.68,SW,225,9.6,19.5,64,0.00,,,0.00,WUHU21623XXSP,2013-03-06 07:35:00,
2013-03-05 23:40:00,48.9,37.4,29.68,SSW,202,8.5,19.5,64,0.00,,,0.00,WUHU21623XXSP,2013-03-06 07:40:00,
2013-03-05 23:45:00,48.7,37.6,29.68,SW,225,13.0,16.8,65,0.00,,,0.00,WUHU21623XXSP,2013-03-06 07:45:00,
2013-03-05 23:50:00,48.7,37.6,29.68,SW,225,10.5,17.4,65,0.00,,,0.00,WUHU21623XXSP,2013-03-06 07:50:00,
2013-03-05 23:55:00,48.7,37.6,29.68,SW,225,5.4,17.7,65,0.00,,,0.00,WUHU21623XXSP,2013-03-06 07:55:00,